sensor_id;sensor_type;location;lat;lon;timestamp;P1;durP1;ratioP1;P2;durP2;ratioP2
46322;SDS011;32044;52.386;13.278;2023-05-07T00:01:41;26.75;;;17.27;;
46322;SDS011;32044;52.386;13.278;2023-05-07T00:04:09;25.30;;;17.77;;
46322;SDS011;32044;52.386;13.278;2023-05-07T00:06:37;28.42;;;17.48;;
46322;SDS011;32044;52.386;13.278;2023-05-07T00:09:06;23.25;;;16.58;;
46322;SDS011;32044;52.386;13.278;2023-05-07T00:11:33;21.50;;;16.27;;
46322;SDS011;32044;52.386;13.278;2023-05-07T00:14:02;25.55;;;16.88;;
46322;SDS011;32044;52.386;13.278;2023-05-07T00:16:30;23.67;;;16.52;;
46322;SDS011;32044;52.386;13.278;2023-05-07T00:18:57;26.17;;;17.27;;
46322;SDS011;32044;52.386;13.278;2023-05-07T00:21:25;26.90;;;17.67;;
46322;SDS011;32044;52.386;13.278;2023-05-07T00:23:53;24.85;;;16.83;;
46322;SDS011;32044;52.386;13.278;2023-05-07T00:26:22;22.55;;;15.88;;
46322;SDS011;32044;52.386;13.278;2023-05-07T00:28:49;24.05;;;16.92;;
46322;SDS011;32044;52.386;13.278;2023-05-07T00:31:17;22.13;;;16.33;;
46322;SDS011;32044;52.386;13.278;2023-05-07T00:33:44;25.52;;;17.70;;
46322;SDS011;32044;52.386;13.278;2023-05-07T00:36:12;20.33;;;15.50;;
46322;SDS011;32044;52.386;13.278;2023-05-07T00:38:40;22.05;;;15.40;;
46322;SDS011;32044;52.386;13.278;2023-05-07T00:41:07;25.35;;;16.33;;
46322;SDS011;32044;52.386;13.278;2023-05-07T00:43:36;22.42;;;16.90;;
46322;SDS011;32044;52.386;13.278;2023-05-07T00:46:04;21.05;;;15.10;;
46322;SDS011;32044;52.386;13.278;2023-05-07T00:48:31;23.77;;;16.30;;
46322;SDS011;32044;52.386;13.278;2023-05-07T00:50:59;28.65;;;17.05;;
46322;SDS011;32044;52.386;13.278;2023-05-07T00:53:26;20.60;;;13.95;;
46322;SDS011;32044;52.386;13.278;2023-05-07T00:55:54;19.85;;;15.40;;
46322;SDS011;32044;52.386;13.278;2023-05-07T00:58:23;20.35;;;15.35;;
46322;SDS011;32044;52.386;13.278;2023-05-07T01:00:52;21.90;;;14.90;;
46322;SDS011;32044;52.386;13.278;2023-05-07T01:03:20;19.58;;;13.77;;
46322;SDS011;32044;52.386;13.278;2023-05-07T01:05:48;20.80;;;15.05;;
46322;SDS011;32044;52.386;13.278;2023-05-07T01:08:16;17.92;;;14.32;;
46322;SDS011;32044;52.386;13.278;2023-05-07T01:10:44;19.27;;;15.07;;
46322;SDS011;32044;52.386;13.278;2023-05-07T01:13:12;18.92;;;14.43;;
46322;SDS011;32044;52.386;13.278;2023-05-07T01:15:40;21.17;;;14.15;;
46322;SDS011;32044;52.386;13.278;2023-05-07T01:18:09;18.77;;;14.07;;
46322;SDS011;32044;52.386;13.278;2023-05-07T01:20:36;19.50;;;14.57;;
46322;SDS011;32044;52.386;13.278;2023-05-07T01:23:05;22.10;;;14.15;;
46322;SDS011;32044;52.386;13.278;2023-05-07T01:25:34;16.45;;;11.88;;
46322;SDS011;32044;52.386;13.278;2023-05-07T01:28:01;19.17;;;12.32;;
46322;SDS011;32044;52.386;13.278;2023-05-07T01:30:29;14.60;;;11.68;;
46322;SDS011;32044;52.386;13.278;2023-05-07T01:32:58;15.02;;;12.15;;
46322;SDS011;32044;52.386;13.278;2023-05-07T01:37:57;17.00;;;12.75;;
46322;SDS011;32044;52.386;13.278;2023-05-07T01:40:26;15.15;;;11.95;;
46322;SDS011;32044;52.386;13.278;2023-05-07T01:42:54;16.67;;;12.32;;
46322;SDS011;32044;52.386;13.278;2023-05-07T01:45:21;16.02;;;11.80;;
46322;SDS011;32044;52.386;13.278;2023-05-07T01:47:49;16.17;;;11.70;;
46322;SDS011;32044;52.386;13.278;2023-05-07T01:50:17;16.63;;;12.05;;
46322;SDS011;32044;52.386;13.278;2023-05-07T01:52:45;15.70;;;10.38;;
46322;SDS011;32044;52.386;13.278;2023-05-07T01:55:14;12.65;;;10.93;;
46322;SDS011;32044;52.386;13.278;2023-05-07T01:57:43;14.30;;;10.73;;
46322;SDS011;32044;52.386;13.278;2023-05-07T02:00:11;15.73;;;11.30;;
46322;SDS011;32044;52.386;13.278;2023-05-07T02:02:39;16.15;;;12.05;;
46322;SDS011;32044;52.386;13.278;2023-05-07T02:05:07;17.15;;;12.93;;
46322;SDS011;32044;52.386;13.278;2023-05-07T02:07:35;16.00;;;12.93;;
46322;SDS011;32044;52.386;13.278;2023-05-07T02:10:02;16.92;;;12.10;;
46322;SDS011;32044;52.386;13.278;2023-05-07T02:12:31;16.02;;;12.75;;
46322;SDS011;32044;52.386;13.278;2023-05-07T02:15:01;16.75;;;12.93;;
46322;SDS011;32044;52.386;13.278;2023-05-07T02:17:28;19.00;;;13.38;;
46322;SDS011;32044;52.386;13.278;2023-05-07T02:19:58;18.50;;;13.20;;
46322;SDS011;32044;52.386;13.278;2023-05-07T02:22:25;17.88;;;12.68;;
46322;SDS011;32044;52.386;13.278;2023-05-07T02:24:53;17.20;;;11.65;;
46322;SDS011;32044;52.386;13.278;2023-05-07T02:27:20;16.27;;;12.55;;
46322;SDS011;32044;52.386;13.278;2023-05-07T02:29:57;16.90;;;11.30;;
46322;SDS011;32044;52.386;13.278;2023-05-07T02:32:26;14.75;;;11.73;;
46322;SDS011;32044;52.386;13.278;2023-05-07T02:34:53;14.13;;;11.25;;
46322;SDS011;32044;52.386;13.278;2023-05-07T02:37:21;17.67;;;11.52;;
46322;SDS011;32044;52.386;13.278;2023-05-07T02:39:48;20.00;;;12.55;;
46322;SDS011;32044;52.386;13.278;2023-05-07T02:42:16;17.38;;;12.88;;
46322;SDS011;32044;52.386;13.278;2023-05-07T02:44:43;17.27;;;12.63;;
46322;SDS011;32044;52.386;13.278;2023-05-07T02:47:11;15.32;;;12.00;;
46322;SDS011;32044;52.386;13.278;2023-05-07T02:49:40;15.45;;;11.82;;
46322;SDS011;32044;52.386;13.278;2023-05-07T02:52:08;16.23;;;12.52;;
46322;SDS011;32044;52.386;13.278;2023-05-07T02:54:36;20.40;;;13.05;;
46322;SDS011;32044;52.386;13.278;2023-05-07T02:57:03;17.63;;;13.07;;
46322;SDS011;32044;52.386;13.278;2023-05-07T02:59:31;16.42;;;12.63;;
46322;SDS011;32044;52.386;13.278;2023-05-07T03:01:58;19.90;;;12.93;;
46322;SDS011;32044;52.386;13.278;2023-05-07T03:04:26;19.85;;;12.85;;
46322;SDS011;32044;52.386;13.278;2023-05-07T03:06:55;19.13;;;12.70;;
46322;SDS011;32044;52.386;13.278;2023-05-07T03:09:22;15.55;;;11.77;;
46322;SDS011;32044;52.386;13.278;2023-05-07T03:11:50;16.40;;;12.05;;
46322;SDS011;32044;52.386;13.278;2023-05-07T03:14:18;18.20;;;11.95;;
46322;SDS011;32044;52.386;13.278;2023-05-07T03:16:46;17.73;;;12.48;;
46322;SDS011;32044;52.386;13.278;2023-05-07T03:19:16;15.93;;;12.82;;
46322;SDS011;32044;52.386;13.278;2023-05-07T03:21:43;22.55;;;12.95;;
46322;SDS011;32044;52.386;13.278;2023-05-07T03:24:12;18.40;;;12.65;;
46322;SDS011;32044;52.386;13.278;2023-05-07T03:26:39;18.30;;;12.45;;
46322;SDS011;32044;52.386;13.278;2023-05-07T03:29:07;20.10;;;11.73;;
46322;SDS011;32044;52.386;13.278;2023-05-07T03:31:34;23.40;;;12.23;;
46322;SDS011;32044;52.386;13.278;2023-05-07T03:34:02;18.55;;;11.73;;
46322;SDS011;32044;52.386;13.278;2023-05-07T03:36:29;17.80;;;12.63;;
46322;SDS011;32044;52.386;13.278;2023-05-07T03:38:57;17.13;;;12.00;;
46322;SDS011;32044;52.386;13.278;2023-05-07T03:41:26;18.23;;;13.20;;
46322;SDS011;32044;52.386;13.278;2023-05-07T03:43:53;18.25;;;13.20;;
46322;SDS011;32044;52.386;13.278;2023-05-07T03:46:21;20.40;;;13.00;;
46322;SDS011;32044;52.386;13.278;2023-05-07T03:48:48;18.77;;;13.35;;
46322;SDS011;32044;52.386;13.278;2023-05-07T03:51:16;18.77;;;13.48;;
46322;SDS011;32044;52.386;13.278;2023-05-07T03:53:43;20.27;;;13.25;;
46322;SDS011;32044;52.386;13.278;2023-05-07T03:56:11;18.48;;;13.15;;
46322;SDS011;32044;52.386;13.278;2023-05-07T03:58:40;20.80;;;13.07;;
46322;SDS011;32044;52.386;13.278;2023-05-07T04:01:07;15.73;;;13.20;;
46322;SDS011;32044;52.386;13.278;2023-05-07T04:03:35;20.02;;;13.20;;
46322;SDS011;32044;52.386;13.278;2023-05-07T04:06:03;19.80;;;13.38;;
46322;SDS011;32044;52.386;13.278;2023-05-07T04:08:32;18.35;;;12.77;;
46322;SDS011;32044;52.386;13.278;2023-05-07T04:10:59;17.13;;;14.27;;
46322;SDS011;32044;52.386;13.278;2023-05-07T04:13:27;17.67;;;13.77;;
46322;SDS011;32044;52.386;13.278;2023-05-07T04:15:56;17.48;;;13.40;;
46322;SDS011;32044;52.386;13.278;2023-05-07T04:18:23;17.92;;;13.18;;
46322;SDS011;32044;52.386;13.278;2023-05-07T04:20:51;18.48;;;12.57;;
46322;SDS011;32044;52.386;13.278;2023-05-07T04:23:18;21.25;;;13.27;;
46322;SDS011;32044;52.386;13.278;2023-05-07T04:25:46;17.17;;;12.07;;
46322;SDS011;32044;52.386;13.278;2023-05-07T04:28:13;17.60;;;12.77;;
46322;SDS011;32044;52.386;13.278;2023-05-07T04:30:41;16.48;;;12.02;;
46322;SDS011;32044;52.386;13.278;2023-05-07T04:33:10;14.90;;;12.07;;
46322;SDS011;32044;52.386;13.278;2023-05-07T04:35:37;19.50;;;12.23;;
46322;SDS011;32044;52.386;13.278;2023-05-07T04:38:05;17.40;;;11.65;;
46322;SDS011;32044;52.386;13.278;2023-05-07T04:40:32;16.83;;;11.13;;
46322;SDS011;32044;52.386;13.278;2023-05-07T04:43:00;17.08;;;11.25;;
46322;SDS011;32044;52.386;13.278;2023-05-07T04:45:27;14.18;;;11.30;;
46322;SDS011;32044;52.386;13.278;2023-05-07T04:47:55;17.15;;;11.35;;
46322;SDS011;32044;52.386;13.278;2023-05-07T04:50:24;17.50;;;10.57;;
46322;SDS011;32044;52.386;13.278;2023-05-07T04:52:52;17.67;;;11.25;;
46322;SDS011;32044;52.386;13.278;2023-05-07T04:55:19;14.52;;;11.52;;
46322;SDS011;32044;52.386;13.278;2023-05-07T04:57:47;13.90;;;11.07;;
46322;SDS011;32044;52.386;13.278;2023-05-07T05:00:14;14.77;;;11.05;;
46322;SDS011;32044;52.386;13.278;2023-05-07T05:02:42;13.13;;;10.35;;
46322;SDS011;32044;52.386;13.278;2023-05-07T05:05:10;14.32;;;9.95;;
46322;SDS011;32044;52.386;13.278;2023-05-07T05:07:39;18.63;;;10.85;;
46322;SDS011;32044;52.386;13.278;2023-05-07T05:10:06;13.65;;;10.43;;
46322;SDS011;32044;52.386;13.278;2023-05-07T05:12:34;16.75;;;10.75;;
46322;SDS011;32044;52.386;13.278;2023-05-07T05:15:02;15.40;;;10.73;;
46322;SDS011;32044;52.386;13.278;2023-05-07T05:17:30;13.07;;;10.30;;
46322;SDS011;32044;52.386;13.278;2023-05-07T05:20:00;12.85;;;10.07;;
46322;SDS011;32044;52.386;13.278;2023-05-07T05:22:28;12.13;;;9.82;;
46322;SDS011;32044;52.386;13.278;2023-05-07T05:24:58;14.38;;;10.65;;
46322;SDS011;32044;52.386;13.278;2023-05-07T05:27:26;14.07;;;10.45;;
46322;SDS011;32044;52.386;13.278;2023-05-07T05:29:54;14.23;;;10.75;;
46322;SDS011;32044;52.386;13.278;2023-05-07T05:32:21;15.60;;;8.95;;
46322;SDS011;32044;52.386;13.278;2023-05-07T05:34:49;12.48;;;8.98;;
46322;SDS011;32044;52.386;13.278;2023-05-07T05:37:17;11.23;;;8.77;;
46322;SDS011;32044;52.386;13.278;2023-05-07T05:39:44;12.32;;;9.10;;
46322;SDS011;32044;52.386;13.278;2023-05-07T05:42:13;10.88;;;8.38;;
46322;SDS011;32044;52.386;13.278;2023-05-07T05:44:41;13.55;;;8.63;;
46322;SDS011;32044;52.386;13.278;2023-05-07T05:47:08;14.05;;;9.05;;
46322;SDS011;32044;52.386;13.278;2023-05-07T05:49:36;11.07;;;8.65;;
46322;SDS011;32044;52.386;13.278;2023-05-07T05:52:03;11.45;;;8.43;;
46322;SDS011;32044;52.386;13.278;2023-05-07T05:54:31;12.00;;;8.35;;
46322;SDS011;32044;52.386;13.278;2023-05-07T05:56:58;11.18;;;8.63;;
46322;SDS011;32044;52.386;13.278;2023-05-07T05:59:27;10.63;;;7.97;;
46322;SDS011;32044;52.386;13.278;2023-05-07T06:01:55;11.48;;;8.15;;
46322;SDS011;32044;52.386;13.278;2023-05-07T06:04:23;11.07;;;8.45;;
46322;SDS011;32044;52.386;13.278;2023-05-07T06:06:50;11.05;;;8.48;;
46322;SDS011;32044;52.386;13.278;2023-05-07T06:09:18;13.32;;;8.35;;
46322;SDS011;32044;52.386;13.278;2023-05-07T06:11:46;13.05;;;8.07;;
46322;SDS011;32044;52.386;13.278;2023-05-07T06:14:13;12.32;;;7.90;;
46322;SDS011;32044;52.386;13.278;2023-05-07T06:16:42;11.13;;;7.85;;
46322;SDS011;32044;52.386;13.278;2023-05-07T06:19:11;11.10;;;8.07;;
46322;SDS011;32044;52.386;13.278;2023-05-07T06:21:38;13.82;;;7.32;;
46322;SDS011;32044;52.386;13.278;2023-05-07T06:24:06;9.93;;;7.75;;
46322;SDS011;32044;52.386;13.278;2023-05-07T06:26:34;9.15;;;7.20;;
46322;SDS011;32044;52.386;13.278;2023-05-07T06:29:01;9.40;;;7.47;;
46322;SDS011;32044;52.386;13.278;2023-05-07T06:31:29;9.73;;;6.88;;
46322;SDS011;32044;52.386;13.278;2023-05-07T06:33:59;9.13;;;6.75;;
46322;SDS011;32044;52.386;13.278;2023-05-07T06:36:28;10.57;;;7.18;;
46322;SDS011;32044;52.386;13.278;2023-05-07T06:38:56;8.70;;;6.40;;
46322;SDS011;32044;52.386;13.278;2023-05-07T06:41:23;9.25;;;6.47;;
46322;SDS011;32044;52.386;13.278;2023-05-07T06:43:52;9.27;;;5.82;;
46322;SDS011;32044;52.386;13.278;2023-05-07T06:46:19;9.25;;;6.85;;
46322;SDS011;32044;52.386;13.278;2023-05-07T06:48:47;9.20;;;6.07;;
46322;SDS011;32044;52.386;13.278;2023-05-07T06:51:15;8.02;;;6.30;;
46322;SDS011;32044;52.386;13.278;2023-05-07T06:53:43;8.82;;;6.45;;
46322;SDS011;32044;52.386;13.278;2023-05-07T06:56:10;11.68;;;6.90;;
46322;SDS011;32044;52.386;13.278;2023-05-07T06:58:38;12.63;;;7.03;;
46322;SDS011;32044;52.386;13.278;2023-05-07T07:01:05;10.80;;;6.90;;
46322;SDS011;32044;52.386;13.278;2023-05-07T07:03:33;10.13;;;6.72;;
46322;SDS011;32044;52.386;13.278;2023-05-07T07:06:01;9.65;;;7.47;;
46322;SDS011;32044;52.386;13.278;2023-05-07T07:08:30;12.52;;;6.90;;
46322;SDS011;32044;52.386;13.278;2023-05-07T07:10:58;11.65;;;6.88;;
46322;SDS011;32044;52.386;13.278;2023-05-07T07:13:25;11.10;;;6.60;;
46322;SDS011;32044;52.386;13.278;2023-05-07T07:15:53;8.75;;;6.57;;
46322;SDS011;32044;52.386;13.278;2023-05-07T07:18:21;9.80;;;6.05;;
46322;SDS011;32044;52.386;13.278;2023-05-07T07:20:48;8.55;;;6.35;;
46322;SDS011;32044;52.386;13.278;2023-05-07T07:23:16;8.18;;;6.90;;
46322;SDS011;32044;52.386;13.278;2023-05-07T07:25:45;9.05;;;6.43;;
46322;SDS011;32044;52.386;13.278;2023-05-07T07:28:12;15.75;;;7.90;;
46322;SDS011;32044;52.386;13.278;2023-05-07T07:30:40;7.53;;;6.57;;
46322;SDS011;32044;52.386;13.278;2023-05-07T07:33:07;10.25;;;6.45;;
46322;SDS011;32044;52.386;13.278;2023-05-07T07:35:35;9.02;;;6.65;;
46322;SDS011;32044;52.386;13.278;2023-05-07T07:38:02;7.95;;;5.63;;
46322;SDS011;32044;52.386;13.278;2023-05-07T07:40:30;6.75;;;5.32;;
46322;SDS011;32044;52.386;13.278;2023-05-07T07:42:59;6.32;;;5.20;;
46322;SDS011;32044;52.386;13.278;2023-05-07T07:45:27;8.52;;;5.43;;
46322;SDS011;32044;52.386;13.278;2023-05-07T07:47:55;10.63;;;5.47;;
46322;SDS011;32044;52.386;13.278;2023-05-07T07:50:22;8.57;;;6.15;;
46322;SDS011;32044;52.386;13.278;2023-05-07T07:53:09;7.40;;;5.20;;
46322;SDS011;32044;52.386;13.278;2023-05-07T07:55:37;6.20;;;4.78;;
46322;SDS011;32044;52.386;13.278;2023-05-07T07:58:07;9.40;;;5.10;;
46322;SDS011;32044;52.386;13.278;2023-05-07T08:00:34;7.70;;;4.43;;
46322;SDS011;32044;52.386;13.278;2023-05-07T08:03:02;8.43;;;4.47;;
46322;SDS011;32044;52.386;13.278;2023-05-07T08:05:29;6.72;;;3.97;;
46322;SDS011;32044;52.386;13.278;2023-05-07T08:07:57;7.78;;;4.85;;
46322;SDS011;32044;52.386;13.278;2023-05-07T08:10:24;6.45;;;4.60;;
46322;SDS011;32044;52.386;13.278;2023-05-07T08:12:52;5.97;;;4.30;;
46322;SDS011;32044;52.386;13.278;2023-05-07T08:15:21;8.52;;;4.80;;
46322;SDS011;32044;52.386;13.278;2023-05-07T08:17:48;6.18;;;4.35;;
46322;SDS011;32044;52.386;13.278;2023-05-07T08:20:16;7.10;;;4.22;;
46322;SDS011;32044;52.386;13.278;2023-05-07T08:22:44;7.00;;;4.35;;
46322;SDS011;32044;52.386;13.278;2023-05-07T08:25:11;5.65;;;4.20;;
46322;SDS011;32044;52.386;13.278;2023-05-07T08:27:39;6.90;;;4.25;;
46322;SDS011;32044;52.386;13.278;2023-05-07T08:30:07;6.13;;;4.82;;
46322;SDS011;32044;52.386;13.278;2023-05-07T08:32:37;5.43;;;4.07;;
46322;SDS011;32044;52.386;13.278;2023-05-07T08:35:05;6.30;;;3.90;;
46322;SDS011;32044;52.386;13.278;2023-05-07T08:37:33;7.03;;;3.58;;
46322;SDS011;32044;52.386;13.278;2023-05-07T08:40:00;4.72;;;3.50;;
46322;SDS011;32044;52.386;13.278;2023-05-07T08:42:28;7.18;;;3.40;;
46322;SDS011;32044;52.386;13.278;2023-05-07T08:44:57;4.22;;;3.40;;
46322;SDS011;32044;52.386;13.278;2023-05-07T08:47:27;8.13;;;3.28;;
46322;SDS011;32044;52.386;13.278;2023-05-07T08:49:58;5.45;;;3.47;;
46322;SDS011;32044;52.386;13.278;2023-05-07T08:52:26;8.75;;;3.58;;
46322;SDS011;32044;52.386;13.278;2023-05-07T08:54:53;6.13;;;3.72;;
46322;SDS011;32044;52.386;13.278;2023-05-07T08:57:21;5.43;;;3.90;;
46322;SDS011;32044;52.386;13.278;2023-05-07T08:59:50;5.72;;;3.90;;
46322;SDS011;32044;52.386;13.278;2023-05-07T09:02:17;5.90;;;3.38;;
46322;SDS011;32044;52.386;13.278;2023-05-07T09:04:45;8.90;;;3.58;;
46322;SDS011;32044;52.386;13.278;2023-05-07T09:07:14;4.88;;;3.25;;
46322;SDS011;32044;52.386;13.278;2023-05-07T09:09:42;7.07;;;3.85;;
46322;SDS011;32044;52.386;13.278;2023-05-07T09:12:11;4.82;;;3.22;;
46322;SDS011;32044;52.386;13.278;2023-05-07T09:14:38;6.78;;;3.75;;
46322;SDS011;32044;52.386;13.278;2023-05-07T09:17:06;4.38;;;3.30;;
46322;SDS011;32044;52.386;13.278;2023-05-07T09:19:33;5.57;;;3.40;;
46322;SDS011;32044;52.386;13.278;2023-05-07T09:22:01;4.10;;;3.10;;
46322;SDS011;32044;52.386;13.278;2023-05-07T09:24:39;5.55;;;3.30;;
46322;SDS011;32044;52.386;13.278;2023-05-07T09:27:07;3.38;;;2.65;;
46322;SDS011;32044;52.386;13.278;2023-05-07T09:29:36;3.85;;;3.08;;
46322;SDS011;32044;52.386;13.278;2023-05-07T09:32:04;4.00;;;2.55;;
46322;SDS011;32044;52.386;13.278;2023-05-07T09:34:33;3.88;;;2.40;;
46322;SDS011;32044;52.386;13.278;2023-05-07T09:37:01;4.30;;;2.50;;
46322;SDS011;32044;52.386;13.278;2023-05-07T09:39:39;4.55;;;2.35;;
46322;SDS011;32044;52.386;13.278;2023-05-07T09:42:07;2.83;;;2.25;;
46322;SDS011;32044;52.386;13.278;2023-05-07T09:44:35;5.25;;;2.75;;
46322;SDS011;32044;52.386;13.278;2023-05-07T09:47:04;4.25;;;2.90;;
46322;SDS011;32044;52.386;13.278;2023-05-07T09:49:33;5.65;;;2.67;;
46322;SDS011;32044;52.386;13.278;2023-05-07T09:52:02;3.15;;;2.67;;
46322;SDS011;32044;52.386;13.278;2023-05-07T09:54:32;3.70;;;2.63;;
46322;SDS011;32044;52.386;13.278;2023-05-07T09:57:02;4.10;;;2.70;;
46322;SDS011;32044;52.386;13.278;2023-05-07T09:59:30;2.83;;;2.33;;
46322;SDS011;32044;52.386;13.278;2023-05-07T10:01:59;4.18;;;2.42;;
46322;SDS011;32044;52.386;13.278;2023-05-07T10:06:58;2.58;;;1.98;;
46322;SDS011;32044;52.386;13.278;2023-05-07T10:09:26;2.83;;;1.98;;
46322;SDS011;32044;52.386;13.278;2023-05-07T10:11:53;2.10;;;1.80;;
46322;SDS011;32044;52.386;13.278;2023-05-07T10:14:22;4.40;;;2.35;;
46322;SDS011;32044;52.386;13.278;2023-05-07T10:16:50;2.47;;;2.28;;
46322;SDS011;32044;52.386;13.278;2023-05-07T10:19:18;2.70;;;1.95;;
46322;SDS011;32044;52.386;13.278;2023-05-07T10:21:48;3.15;;;1.95;;
46322;SDS011;32044;52.386;13.278;2023-05-07T10:24:19;3.35;;;2.00;;
46322;SDS011;32044;52.386;13.278;2023-05-07T10:26:48;4.68;;;2.10;;
46322;SDS011;32044;52.386;13.278;2023-05-07T10:29:18;2.20;;;2.00;;
46322;SDS011;32044;52.386;13.278;2023-05-07T10:31:55;2.88;;;2.08;;
46322;SDS011;32044;52.386;13.278;2023-05-07T10:34:28;3.55;;;2.20;;
46322;SDS011;32044;52.386;13.278;2023-05-07T10:36:57;3.35;;;2.10;;
46322;SDS011;32044;52.386;13.278;2023-05-07T10:39:24;6.40;;;2.22;;
46322;SDS011;32044;52.386;13.278;2023-05-07T10:42:07;2.75;;;1.83;;
46322;SDS011;32044;52.386;13.278;2023-05-07T10:44:36;3.00;;;2.28;;
46322;SDS011;32044;52.386;13.278;2023-05-07T10:47:05;5.28;;;2.40;;
46322;SDS011;32044;52.386;13.278;2023-05-07T10:49:35;3.10;;;1.83;;
46322;SDS011;32044;52.386;13.278;2023-05-07T10:52:13;3.00;;;2.17;;
46322;SDS011;32044;52.386;13.278;2023-05-07T10:54:42;2.75;;;1.90;;
46322;SDS011;32044;52.386;13.278;2023-05-07T11:00:01;4.22;;;2.17;;
46322;SDS011;32044;52.386;13.278;2023-05-07T11:05:35;2.20;;;1.88;;
46322;SDS011;32044;52.386;13.278;2023-05-07T11:08:04;3.05;;;2.08;;
46322;SDS011;32044;52.386;13.278;2023-05-07T11:10:47;1.90;;;1.67;;
46322;SDS011;32044;52.386;13.278;2023-05-07T11:13:16;3.00;;;2.38;;
46322;SDS011;32044;52.386;13.278;2023-05-07T11:15:45;1.95;;;1.75;;
46322;SDS011;32044;52.386;13.278;2023-05-07T11:18:14;4.70;;;2.13;;
46322;SDS011;32044;52.386;13.278;2023-05-07T11:20:53;1.92;;;1.80;;
46322;SDS011;32044;52.386;13.278;2023-05-07T11:26:25;3.40;;;1.88;;
46322;SDS011;32044;52.386;13.278;2023-05-07T11:28:53;2.42;;;1.60;;
46322;SDS011;32044;52.386;13.278;2023-05-07T11:31:23;2.38;;;1.77;;
46322;SDS011;32044;52.386;13.278;2023-05-07T11:33:52;2.53;;;2.22;;
46322;SDS011;32044;52.386;13.278;2023-05-07T11:36:22;3.92;;;1.88;;
46322;SDS011;32044;52.386;13.278;2023-05-07T11:38:50;3.70;;;2.13;;
46322;SDS011;32044;52.386;13.278;2023-05-07T11:41:17;3.63;;;2.30;;
46322;SDS011;32044;52.386;13.278;2023-05-07T11:43:54;2.65;;;1.98;;
46322;SDS011;32044;52.386;13.278;2023-05-07T11:46:24;2.85;;;2.08;;
46322;SDS011;32044;52.386;13.278;2023-05-07T11:48:52;2.42;;;1.77;;
46322;SDS011;32044;52.386;13.278;2023-05-07T11:51:20;4.47;;;1.80;;
46322;SDS011;32044;52.386;13.278;2023-05-07T11:53:48;2.65;;;1.70;;
46322;SDS011;32044;52.386;13.278;2023-05-07T11:56:16;3.08;;;1.88;;
46322;SDS011;32044;52.386;13.278;2023-05-07T11:58:45;4.28;;;2.28;;
46322;SDS011;32044;52.386;13.278;2023-05-07T12:01:14;2.33;;;1.92;;
46322;SDS011;32044;52.386;13.278;2023-05-07T12:03:44;1.98;;;1.75;;
46322;SDS011;32044;52.386;13.278;2023-05-07T12:06:13;4.03;;;2.00;;
46322;SDS011;32044;52.386;13.278;2023-05-07T12:08:42;4.60;;;1.88;;
46322;SDS011;32044;52.386;13.278;2023-05-07T12:11:14;1.70;;;1.60;;
46322;SDS011;32044;52.386;13.278;2023-05-07T12:13:43;2.88;;;1.65;;
46322;SDS011;32044;52.386;13.278;2023-05-07T12:16:11;1.88;;;1.60;;
46322;SDS011;32044;52.386;13.278;2023-05-07T12:18:38;4.43;;;2.00;;
46322;SDS011;32044;52.386;13.278;2023-05-07T12:21:07;2.17;;;1.92;;
46322;SDS011;32044;52.386;13.278;2023-05-07T12:23:36;2.92;;;1.80;;
46322;SDS011;32044;52.386;13.278;2023-05-07T12:26:04;2.08;;;1.88;;
46322;SDS011;32044;52.386;13.278;2023-05-07T12:28:36;2.33;;;1.60;;
46322;SDS011;32044;52.386;13.278;2023-05-07T12:31:04;2.72;;;1.80;;
46322;SDS011;32044;52.386;13.278;2023-05-07T12:33:32;4.95;;;1.98;;
46322;SDS011;32044;52.386;13.278;2023-05-07T12:36:05;3.35;;;2.33;;
46322;SDS011;32044;52.386;13.278;2023-05-07T12:38:36;2.28;;;2.00;;
46322;SDS011;32044;52.386;13.278;2023-05-07T12:41:05;2.17;;;1.98;;
46322;SDS011;32044;52.386;13.278;2023-05-07T12:43:34;3.58;;;2.00;;
46322;SDS011;32044;52.386;13.278;2023-05-07T12:46:02;5.18;;;1.80;;
46322;SDS011;32044;52.386;13.278;2023-05-07T12:48:31;3.28;;;1.80;;
46322;SDS011;32044;52.386;13.278;2023-05-07T12:50:59;3.60;;;1.88;;
46322;SDS011;32044;52.386;13.278;2023-05-07T12:53:28;7.07;;;1.80;;
46322;SDS011;32044;52.386;13.278;2023-05-07T12:55:58;2.83;;;1.90;;
46322;SDS011;32044;52.386;13.278;2023-05-07T12:58:26;3.92;;;2.00;;
46322;SDS011;32044;52.386;13.278;2023-05-07T13:00:55;3.85;;;1.67;;
46322;SDS011;32044;52.386;13.278;2023-05-07T13:03:26;2.25;;;1.88;;
46322;SDS011;32044;52.386;13.278;2023-05-07T13:05:55;3.60;;;2.05;;
46322;SDS011;32044;52.386;13.278;2023-05-07T13:08:25;3.72;;;2.00;;
46322;SDS011;32044;52.386;13.278;2023-05-07T13:10:53;4.25;;;2.45;;
46322;SDS011;32044;52.386;13.278;2023-05-07T13:13:22;2.33;;;1.80;;
46322;SDS011;32044;52.386;13.278;2023-05-07T13:15:50;2.28;;;1.65;;
46322;SDS011;32044;52.386;13.278;2023-05-07T13:18:17;2.22;;;1.50;;
46322;SDS011;32044;52.386;13.278;2023-05-07T13:20:45;2.95;;;2.00;;
46322;SDS011;32044;52.386;13.278;2023-05-07T13:23:13;2.20;;;1.90;;
46322;SDS011;32044;52.386;13.278;2023-05-07T13:25:40;2.05;;;1.67;;
46322;SDS011;32044;52.386;13.278;2023-05-07T13:28:07;5.00;;;1.92;;
46322;SDS011;32044;52.386;13.278;2023-05-07T13:30:38;1.58;;;1.40;;
46322;SDS011;32044;52.386;13.278;2023-05-07T13:33:06;2.55;;;1.60;;
46322;SDS011;32044;52.386;13.278;2023-05-07T13:35:34;3.22;;;1.73;;
46322;SDS011;32044;52.386;13.278;2023-05-07T13:38:02;3.05;;;1.80;;
46322;SDS011;32044;52.386;13.278;2023-05-07T13:40:29;3.08;;;1.98;;
46322;SDS011;32044;52.386;13.278;2023-05-07T13:42:58;3.58;;;2.05;;
46322;SDS011;32044;52.386;13.278;2023-05-07T13:45:27;2.65;;;2.08;;
46322;SDS011;32044;52.386;13.278;2023-05-07T13:47:57;5.35;;;1.85;;
46322;SDS011;32044;52.386;13.278;2023-05-07T13:50:24;1.90;;;1.58;;
46322;SDS011;32044;52.386;13.278;2023-05-07T13:52:55;1.98;;;1.70;;
46322;SDS011;32044;52.386;13.278;2023-05-07T13:55:23;3.67;;;1.65;;
46322;SDS011;32044;52.386;13.278;2023-05-07T13:57:55;2.35;;;2.00;;
46322;SDS011;32044;52.386;13.278;2023-05-07T14:00:23;1.88;;;1.58;;
46322;SDS011;32044;52.386;13.278;2023-05-07T14:02:51;1.80;;;1.50;;
46322;SDS011;32044;52.386;13.278;2023-05-07T14:05:20;2.15;;;1.80;;
46322;SDS011;32044;52.386;13.278;2023-05-07T14:07:49;5.78;;;2.00;;
46322;SDS011;32044;52.386;13.278;2023-05-07T14:10:18;2.70;;;1.98;;
46322;SDS011;32044;52.386;13.278;2023-05-07T14:12:45;1.83;;;1.55;;
46322;SDS011;32044;52.386;13.278;2023-05-07T14:15:14;2.10;;;1.77;;
46322;SDS011;32044;52.386;13.278;2023-05-07T14:17:42;4.35;;;1.80;;
46322;SDS011;32044;52.386;13.278;2023-05-07T14:20:10;2.53;;;1.77;;
46322;SDS011;32044;52.386;13.278;2023-05-07T14:22:40;2.15;;;1.95;;
46322;SDS011;32044;52.386;13.278;2023-05-07T14:25:17;2.20;;;2.00;;
46322;SDS011;32044;52.386;13.278;2023-05-07T14:27:45;3.67;;;1.88;;
46322;SDS011;32044;52.386;13.278;2023-05-07T14:30:12;2.08;;;1.70;;
46322;SDS011;32044;52.386;13.278;2023-05-07T14:32:40;2.67;;;1.98;;
46322;SDS011;32044;52.386;13.278;2023-05-07T14:35:08;4.47;;;1.80;;
46322;SDS011;32044;52.386;13.278;2023-05-07T14:37:36;1.98;;;1.88;;
46322;SDS011;32044;52.386;13.278;2023-05-07T14:40:06;2.65;;;1.90;;
46322;SDS011;32044;52.386;13.278;2023-05-07T14:42:34;3.10;;;1.70;;
46322;SDS011;32044;52.386;13.278;2023-05-07T14:45:02;1.70;;;1.60;;